首页
METAR-TAF:

METAR-TAF

机场 :

卢森堡-芬德尔国际机场

卢森堡, 卢森堡

纬度: 49-37N, 经度: 006-13E, 海拔: 376米

当前天气观测

该预报发布于35分钟前的01:20 UTC
风速7节,风向东北
温度 1°C
湿度 93%
气压 1010 hPa
能見度: 1500
轻雾

METAR: ELLX 170120Z AUTO 04007KT 1500 BR NCD 01/00 Q1010 NOSIG

时间: 02:55 (01:55 UTC)

预报

该预报发布于2小时和55分钟前的23:00 UTC
预报有效从17日的 00点(UTC)到 18日的 06点(UTC)
风速3节,风向东南
能見度: 8000
成为
从 17日的 00点(UTC)到 17日的 03点(UTC)
能見度: 4000
轻雾
短暂存在
从 17日的 03点(UTC)到 17日的 09点(UTC)
能見度: 1200
多云层高于400英尺
几率 40% :
短暂存在
从 17日的 03点(UTC)到 17日的 06点(UTC)
能見度: 0200
层高于200英尺
冻雾
成为
从 17日的 08点(UTC)到 17日的 11点(UTC)
能见度10公里或以上
多云层高于800英尺
成为
从 17日的 15点(UTC)到 17日的 17点(UTC)
风速10节,风向北转西北,有时为20节阵风
能見度: 5000
多云层高于1200英尺

TAF: ELLX 162300Z 1700/1806 13003KT 8000 NSC BECMG 1700/1703 4000 BR TEMPO 1703/1709 1200 BKN004 PROB40 TEMPO 1703/1706 0200 FZFG VV002 BECMG 1708/1711 9999 BKN008 BECMG 1715/1717 34010G20KT 5000 RA BKN012

超过4000个机场的气象观测和天气预报(METAR&TAF报告)。

可查询的气象台以黄色和红色小点在地图上表示。

将鼠标移到小点上方,可查看气象台名称。

然后点击查看天气观测和预报。

如需切换地图:点击带黑十字的绿色按钮放大地图;点击带横线的绿色按钮缩小地图;或者点击绿色箭头查看邻近地区的地图。


METAR-TAF: